Time;durP1;ratioP1;P1;durP2;ratioP2;P2;SDS_P1;SDS_P2;PMS_P1;PMS_P2;Temp;Humidity;BMP_temperature;BMP_pressure;BME280_temperature;BME280_humidity;BME280_pressure;Samples;Min_cycle;Max_cycle;Signal;HPM_P1;HPM_P2
2023/07/31 00:00:46;;;;;;;10.30;6.97;;;15.80;99.90;;;;;;4960967;29;20470;-61
2023/07/31 00:03:13;;;;;;;8.37;6.33;;;15.80;99.90;;;;;;4961054;29;20571;-59
2023/07/31 00:05:42;;;;;;;11.30;6.00;;;15.80;99.90;;;;;;4961051;29;20472;-62
2023/07/31 00:08:09;;;;;;;9.90;5.80;;;15.80;99.90;;;;;;4961142;29;20928;-65
2023/07/31 00:10:36;;;;;;;12.77;6.50;;;15.80;99.90;;;;;;4960062;28;20470;-66
2023/07/31 00:13:03;;;;;;;8.83;5.80;;;15.80;99.90;;;;;;4960815;29;20472;-64
2023/07/31 00:15:30;;;;;;;6.30;5.03;;;15.80;99.90;;;;;;4961322;29;20899;-60
2023/07/31 00:17:58;;;;;;;9.73;5.20;;;15.80;99.90;;;;;;4960784;28;20816;-60
2023/07/31 00:20:25;;;;;;;11.60;5.87;;;15.80;99.90;;;;;;4961158;29;20466;-62
2023/07/31 00:22:55;;;;;;;8.90;6.93;;;15.80;99.90;;;;;;4960687;29;20567;-61
2023/07/31 00:25:22;;;;;;;10.20;6.50;;;15.80;99.90;;;;;;4960421;29;20561;-69
2023/07/31 00:27:49;;;;;;;11.00;5.70;;;15.80;99.90;;;;;;4960965;29;20501;-61
2023/07/31 00:30:16;;;;;;;10.80;6.13;;;15.80;99.90;;;;;;4961274;29;20459;-66
2023/07/31 00:32:44;;;;;;;9.67;6.20;;;15.80;99.90;;;;;;4960176;29;20562;-61
2023/07/31 00:35:11;;;;;;;8.93;5.43;;;15.80;99.90;;;;;;4960190;29;20454;-62
2023/07/31 00:37:38;;;;;;;10.87;6.23;;;15.80;99.90;;;;;;4960785;28;20477;-61
2023/07/31 00:40:08;;;;;;;10.20;6.73;;;15.80;99.90;;;;;;4960541;28;20467;-63
2023/07/31 00:42:35;;;;;;;14.37;6.80;;;15.80;99.90;;;;;;4960363;28;20911;-62
2023/07/31 00:45:03;;;;;;;10.67;6.97;;;15.80;99.90;;;;;;4960194;29;20469;-62
2023/07/31 00:47:30;;;;;;;9.33;6.27;;;15.80;99.90;;;;;;4960340;29;20494;-59
2023/07/31 00:49:58;;;;;;;12.23;6.83;;;15.80;99.90;;;;;;4960301;29;20539;-64
2023/07/31 00:52:25;;;;;;;11.47;6.67;;;15.80;99.90;;;;;;4960320;29;20833;-62
2023/07/31 00:54:52;;;;;;;11.30;6.57;;;15.80;99.90;;;;;;4960113;29;20566;-67
2023/07/31 00:57:21;;;;;;;10.03;5.30;;;15.80;99.90;;;;;;4960305;29;20458;-62
2023/07/31 00:59:48;;;;;;;11.80;6.70;;;15.90;99.90;;;;;;4960246;29;20478;-63
2023/07/31 01:02:15;;;;;;;13.17;7.00;;;15.90;99.90;;;;;;4960097;29;20564;-69
2023/07/31 01:04:44;;;;;;;11.20;6.63;;;15.80;99.90;;;;;;4959793;29;20506;-61
2023/07/31 01:07:15;;;;;;;12.27;6.60;;;15.80;99.90;;;;;;4959686;29;20494;-62
2023/07/31 01:09:50;;;;;;;9.30;6.43;;;15.80;99.90;;;;;;4959778;29;20552;-62
2023/07/31 01:12:18;;;;;;;8.87;5.50;;;15.90;99.90;;;;;;4960263;29;20485;-64
2023/07/31 01:15:04;;;;;;;9.60;5.57;;;15.90;99.90;;;;;;4958905;29;20452;-61
2023/07/31 01:17:31;;;;;;;9.20;6.20;;;15.80;99.90;;;;;;4959765;28;20560;-62
2023/07/31 01:20:03;;;;;;;16.30;7.07;;;15.80;99.90;;;;;;4959597;29;20526;-62
2023/07/31 01:22:43;;;;;;;8.57;6.10;;;15.80;99.90;;;;;;4959911;28;20605;-62
2023/07/31 01:25:26;;;;;;;12.13;6.00;;;15.80;99.90;;;;;;4959307;28;20474;-65
2023/07/31 01:28:00;;;;;;;11.43;6.40;;;15.80;99.90;;;;;;4959641;29;20768;-69
2023/07/31 01:30:35;;;;;;;10.40;6.20;;;15.80;99.90;;;;;;4959268;29;20464;-62
2023/07/31 01:33:06;;;;;;;9.30;5.03;;;15.90;99.90;;;;;;4959490;29;20466;-67
2023/07/31 01:35:34;;;;;;;12.37;6.07;;;15.80;99.90;;;;;;4959457;29;20768;-64
2023/07/31 01:38:01;;;;;;;8.97;6.10;;;15.80;99.90;;;;;;4959474;29;20437;-63
2023/07/31 01:40:28;;;;;;;10.67;5.93;;;15.90;99.90;;;;;;4959692;29;20445;-62
2023/07/31 01:42:56;;;;;;;8.07;5.27;;;15.80;99.90;;;;;;4959311;29;20477;-63
2023/07/31 01:45:24;;;;;;;11.40;5.73;;;15.80;99.90;;;;;;4959414;29;20467;-63
2023/07/31 01:47:51;;;;;;;10.93;5.20;;;15.90;99.90;;;;;;4959258;29;20500;-63
2023/07/31 01:50:19;;;;;;;7.40;5.40;;;15.80;99.90;;;;;;4958738;29;20540;-61
2023/07/31 01:52:46;;;;;;;10.10;6.00;;;15.80;99.90;;;;;;4958688;29;20488;-64
2023/07/31 01:55:13;;;;;;;8.80;4.97;;;15.80;99.90;;;;;;4958623;29;20446;-62
2023/07/31 01:57:41;;;;;;;10.37;5.47;;;15.90;99.90;;;;;;4958989;29;20463;-63
2023/07/31 02:00:10;;;;;;;11.47;6.00;;;15.90;99.90;;;;;;4959378;29;20553;-61
2023/07/31 02:02:37;;;;;;;11.60;6.80;;;15.80;99.90;;;;;;4959524;29;20473;-64
2023/07/31 02:05:05;;;;;;;10.60;6.23;;;15.80;99.90;;;;;;4958387;29;20454;-63
2023/07/31 02:07:32;;;;;;;11.03;5.80;;;15.80;99.90;;;;;;4959090;29;20487;-62
2023/07/31 02:09:59;;;;;;;10.03;6.63;;;15.80;99.90;;;;;;4959075;29;20489;-62
2023/07/31 02:12:27;;;;;;;9.13;5.87;;;15.80;99.90;;;;;;4958982;29;20466;-63
2023/07/31 02:14:54;;;;;;;10.23;6.40;;;15.80;99.90;;;;;;4958760;29;20576;-68
2023/07/31 02:17:23;;;;;;;12.27;5.73;;;15.80;99.90;;;;;;4958349;29;20459;-64
2023/07/31 02:19:50;;;;;;;10.00;5.90;;;15.80;99.90;;;;;;4958797;29;20466;-63
2023/07/31 02:22:18;;;;;;;13.00;5.90;;;15.80;99.90;;;;;;4959135;29;20466;-65
2023/07/31 02:24:45;;;;;;;14.87;5.97;;;15.80;99.90;;;;;;4958776;28;20474;-64
2023/07/31 02:27:12;;;;;;;10.97;6.67;;;15.80;99.90;;;;;;4958141;29;20486;-65
2023/07/31 02:29:39;;;;;;;10.07;5.90;;;15.80;99.90;;;;;;4959027;28;20567;-65
2023/07/31 02:32:07;;;;;;;8.40;5.70;;;15.80;99.90;;;;;;4958964;28;20474;-63
2023/07/31 02:34:35;;;;;;;9.20;6.13;;;15.80;99.90;;;;;;4957907;29;20451;-63
2023/07/31 02:37:03;;;;;;;8.40;5.90;;;15.80;99.90;;;;;;4958104;29;20463;-64
2023/07/31 02:39:30;;;;;;;8.80;5.53;;;15.80;99.90;;;;;;4958738;28;20557;-61
2023/07/31 02:41:57;;;;;;;11.70;5.80;;;15.80;99.90;;;;;;4959053;29;20466;-63
2023/07/31 02:44:24;;;;;;;13.37;6.67;;;15.80;99.90;;;;;;4959071;29;20464;-68
2023/07/31 02:46:51;;;;;;;11.33;6.40;;;15.80;99.90;;;;;;4959296;29;20476;-63
2023/07/31 02:49:18;;;;;;;10.70;6.10;;;15.80;58.60;;;;;;4958374;29;20499;-64
2023/07/31 02:51:47;;;;;;;12.97;6.33;;;15.80;20.40;;;;;;4958425;29;20470;-64
2023/07/31 02:54:14;;;;;;;12.70;6.63;;;15.90;1.00;;;;;;4958028;29;20463;-63
2023/07/31 02:56:41;;;;;;;9.90;5.77;;;15.90;1.00;;;;;;4958750;28;20536;-63
2023/07/31 02:59:08;;;;;;;12.87;6.00;;;15.90;1.00;;;;;;4959756;29;20459;-67
2023/07/31 03:01:35;;;;;;;11.20;6.23;;;15.90;93.60;;;;;;4959459;29;20471;-65
2023/07/31 03:04:02;;;;;;;9.93;5.80;;;15.90;1.00;;;;;;4959009;29;20750;-63
2023/07/31 03:06:29;;;;;;;12.93;6.37;;;15.90;70.30;;;;;;4959098;29;20473;-65
2023/07/31 03:08:58;;;;;;;11.60;5.93;;;15.90;99.90;;;;;;4958504;28;20495;-63
2023/07/31 03:11:25;;;;;;;10.20;6.20;;;16.00;51.70;;;;;;4958731;29;20815;-64
2023/07/31 03:13:52;;;;;;;8.30;5.77;;;16.00;99.90;;;;;;4958909;29;20445;-64
2023/07/31 03:16:19;;;;;;;12.53;5.60;;;16.00;1.00;;;;;;4959302;29;20760;-64
2023/07/31 03:18:46;;;;;;;9.10;6.10;;;16.10;99.90;;;;;;4958568;29;20495;-66
2023/07/31 03:21:14;;;;;;;8.70;5.90;;;16.10;99.90;;;;;;4958794;29;20466;-68
2023/07/31 03:23:43;;;;;;;9.20;5.20;;;16.10;99.90;;;;;;4958652;29;20858;-67
2023/07/31 03:26:11;;;;;;;11.53;6.10;;;16.10;1.00;;;;;;4959077;28;20473;-66
2023/07/31 03:28:39;;;;;;;11.80;6.23;;;16.10;1.00;;;;;;4958698;29;20495;-66
2023/07/31 03:31:08;;;;;;;8.63;5.77;;;16.10;1.00;;;;;;4958880;29;20466;-66
2023/07/31 03:33:35;;;;;;;12.57;6.87;;;16.10;1.00;;;;;;4958329;29;20473;-67
2023/07/31 03:36:03;;;;;;;11.67;6.30;;;16.10;52.50;;;;;;4969794;28;20899;-67
2023/07/31 03:38:30;;;;;;;7.23;5.50;;;16.20;1.00;;;;;;4977365;28;20525;-66
2023/07/31 03:40:58;;;;;;;10.63;6.33;;;16.20;99.90;;;;;;4978415;28;20750;-65
2023/07/31 03:43:27;;;;;;;11.13;5.50;;;16.20;99.90;;;;;;4978268;28;20489;-66
2023/07/31 03:45:54;;;;;;;12.93;6.23;;;16.20;93.90;;;;;;4981047;28;20465;-65
2023/07/31 03:48:21;;;;;;;12.17;6.20;;;16.30;39.10;;;;;;4981275;28;21034;-64
2023/07/31 03:50:48;;;;;;;9.77;6.10;;;16.20;17.00;;;;;;4981756;28;20443;-66
2023/07/31 03:53:15;;;;;;;11.33;5.80;;;16.30;1.00;;;;;;4982303;28;20468;-66
2023/07/31 03:55:43;;;;;;;12.17;6.20;;;16.20;1.00;;;;;;4981358;28;20462;-64
2023/07/31 03:58:10;;;;;;;19.17;7.03;;;16.20;1.00;;;;;;4982595;28;20751;-64
2023/07/31 04:00:38;;;;;;;15.27;5.93;;;16.20;1.00;;;;;;4981365;28;20504;-64
2023/07/31 04:03:05;;;;;;;16.53;6.67;;;16.30;99.90;;;;;;4980873;28;20869;-64
2023/07/31 04:05:33;;;;;;;13.00;5.63;;;16.30;99.90;;;;;;4981300;28;20495;-64
2023/07/31 04:08:00;;;;;;;12.20;5.30;;;16.30;99.90;;;;;;4980507;28;20934;-65
2023/07/31 04:10:28;;;;;;;11.50;6.07;;;16.30;99.90;;;;;;4981348;28;20559;-63
2023/07/31 04:12:55;;;;;;;10.93;6.00;;;16.30;99.90;;;;;;4980679;28;20545;-65
2023/07/31 04:15:22;;;;;;;12.73;5.50;;;16.30;1.00;;;;;;4981094;28;20466;-63
2023/07/31 04:17:51;;;;;;;10.53;6.00;;;16.30;99.90;;;;;;4980846;28;20489;-65
2023/07/31 04:20:18;;;;;;;10.90;6.13;;;16.30;99.90;;;;;;4980422;28;20516;-65
2023/07/31 04:22:45;;;;;;;7.40;5.97;;;16.30;99.90;;;;;;4980412;28;20466;-64
2023/07/31 04:25:12;;;;;;;8.90;5.80;;;16.30;99.90;;;;;;4980471;28;20437;-68
2023/07/31 04:27:42;;;;;;;8.90;5.43;;;16.30;99.90;;;;;;4980110;28;20553;-66
2023/07/31 04:30:09;;;;;;;10.20;5.93;;;16.30;99.90;;;;;;4980657;28;20909;-65
2023/07/31 04:32:37;;;;;;;11.77;5.53;;;16.40;99.90;;;;;;4980844;28;20437;-65
2023/07/31 04:35:06;;;;;;;11.07;6.03;;;16.40;99.90;;;;;;4980074;28;20986;-63
2023/07/31 04:37:33;;;;;;;12.23;5.60;;;16.40;99.90;;;;;;4980391;28;20458;-64
2023/07/31 04:40:00;;;;;;;13.27;5.80;;;16.40;99.90;;;;;;4980309;28;20443;-65
2023/07/31 04:42:27;;;;;;;9.10;5.77;;;16.40;99.90;;;;;;4980164;28;20470;-65
2023/07/31 04:44:54;;;;;;;8.60;6.00;;;16.40;1.00;;;;;;4979816;28;20458;-65
2023/07/31 04:47:22;;;;;;;9.80;6.10;;;16.40;1.00;;;;;;4966650;28;20481;-65
2023/07/31 04:49:49;;;;;;;10.47;5.30;;;16.40;99.90;;;;;;4959759;29;20496;-65
2023/07/31 04:52:17;;;;;;;9.50;6.63;;;16.30;99.90;;;;;;4959188;28;20463;-64
2023/07/31 04:54:44;;;;;;;13.97;6.20;;;16.30;99.90;;;;;;4959428;29;20931;-65
2023/07/31 04:57:11;;;;;;;10.10;6.20;;;16.30;99.90;;;;;;4959630;28;20705;-65
2023/07/31 04:59:38;;;;;;;10.57;6.47;;;16.30;1.00;;;;;;4960205;29;20458;-64
2023/07/31 05:02:06;;;;;;;10.07;6.80;;;16.30;99.90;;;;;;4960232;29;20459;-64
2023/07/31 05:04:33;;;;;;;9.83;6.70;;;16.30;1.00;;;;;;4960492;29;20459;-64
2023/07/31 05:07:01;;;;;;;11.37;6.40;;;16.30;1.00;;;;;;4960159;28;20748;-65
2023/07/31 05:09:29;;;;;;;16.50;7.30;;;16.30;99.90;;;;;;4959520;29;20595;-65
2023/07/31 05:11:56;;;;;;;10.00;7.10;;;16.40;1.00;;;;;;4959880;29;20570;-66
2023/07/31 05:14:25;;;;;;;10.97;6.50;;;16.40;99.90;;;;;;4960056;28;20546;-65
2023/07/31 05:16:52;;;;;;;12.90;7.53;;;16.50;99.90;;;;;;4959506;29;20502;-65
2023/07/31 05:19:19;;;;;;;11.90;7.13;;;16.50;11.50;;;;;;4959490;28;20490;-64
2023/07/31 05:21:46;;;;;;;11.13;6.60;;;16.50;99.90;;;;;;4960215;29;20482;-65
2023/07/31 05:24:13;;;;;;;8.13;5.97;;;16.60;99.90;;;;;;4959846;29;20440;-66
2023/07/31 05:26:42;;;;;;;13.70;6.30;;;16.60;1.00;;;;;;4959405;29;20462;-66
2023/07/31 05:29:09;;;;;;;10.50;6.90;;;16.60;1.00;;;;;;4959313;29;20495;-66
2023/07/31 05:31:38;;;;;;;9.47;6.33;;;16.60;99.90;;;;;;4959659;29;20876;-68
2023/07/31 05:34:05;;;;;;;9.97;6.33;;;16.70;1.00;;;;;;4959733;29;20513;-69
2023/07/31 05:36:32;;;;;;;15.30;6.43;;;16.60;99.90;;;;;;4959468;29;20529;-68
2023/07/31 05:39:00;;;;;;;9.03;6.70;;;16.70;99.90;;;;;;4959278;29;20553;-67
2023/07/31 05:41:27;;;;;;;11.07;6.93;;;16.70;99.90;;;;;;4959586;29;20553;-67
2023/07/31 05:43:55;;;;;;;11.07;7.83;;;16.70;1.00;;;;;;4959616;29;20459;-69
2023/07/31 05:46:23;;;;;;;11.33;7.47;;;16.70;1.00;;;;;;4959551;28;20920;-68
2023/07/31 05:48:50;;;;;;;9.57;6.80;;;16.60;1.00;;;;;;4959485;29;20530;-68
2023/07/31 05:51:17;;;;;;;10.60;7.07;;;16.70;1.00;;;;;;4959414;29;20460;-68
2023/07/31 05:53:44;;;;;;;10.17;7.37;;;16.70;1.00;;;;;;4958631;29;20493;-67
2023/07/31 05:56:11;;;;;;;8.73;5.80;;;16.70;99.90;;;;;;4958614;29;20457;-68
2023/07/31 05:58:38;;;;;;;9.00;7.00;;;16.60;99.90;;;;;;4959433;29;20455;-68
2023/07/31 06:01:07;;;;;;;11.77;6.60;;;16.70;99.90;;;;;;4958974;28;20462;-68
2023/07/31 06:03:34;;;;;;;11.90;6.93;;;16.70;99.90;;;;;;4959142;29;20586;-68
2023/07/31 06:06:01;;;;;;;10.77;6.70;;;16.70;99.90;;;;;;4959431;29;20441;-68
2023/07/31 06:08:28;;;;;;;9.67;7.20;;;16.70;99.90;;;;;;4957889;28;20469;-68
2023/07/31 06:10:55;;;;;;;10.10;6.80;;;16.70;99.90;;;;;;4958996;28;20884;-69
2023/07/31 06:13:23;;;;;;;11.00;6.40;;;16.70;99.90;;;;;;4959108;28;20466;-68
2023/07/31 06:15:50;;;;;;;10.43;6.60;;;16.70;99.90;;;;;;4959247;28;20466;-68
2023/07/31 06:18:19;;;;;;;8.87;6.00;;;16.70;99.90;;;;;;4959000;28;20498;-67
2023/07/31 06:20:47;;;;;;;9.17;6.47;;;16.70;99.90;;;;;;4959595;29;20815;-67
2023/07/31 06:23:14;;;;;;;9.93;7.20;;;16.70;98.20;;;;;;4959468;29;20847;-67
2023/07/31 06:25:41;;;;;;;8.10;6.20;;;16.70;16.40;;;;;;4959846;28;20764;-67
2023/07/31 06:28:09;;;;;;;9.80;6.10;;;16.70;1.00;;;;;;4960562;28;20908;-68
2023/07/31 06:30:36;;;;;;;7.93;6.17;;;16.70;1.00;;;;;;4960052;29;20958;-68
2023/07/31 06:33:03;;;;;;;8.30;6.40;;;16.70;1.00;;;;;;4958813;29;20432;-70
2023/07/31 06:35:32;;;;;;;8.20;5.87;;;16.70;1.00;;;;;;4965844;28;20854;-68
2023/07/31 06:37:59;;;;;;;8.77;6.23;;;16.70;1.00;;;;;;4976304;28;20469;-64
2023/07/31 06:40:27;;;;;;;10.73;6.20;;;16.60;81.40;;;;;;4978252;28;20822;-64
2023/07/31 06:42:54;;;;;;;7.30;5.43;;;16.60;99.90;;;;;;4959284;28;20484;-63
2023/07/31 06:45:21;;;;;;;8.80;5.93;;;16.60;1.00;;;;;;4955954;28;20501;-62
2023/07/31 06:47:51;;;;;;;8.80;7.50;;;16.60;1.00;;;;;;4956336;29;20452;-63
2023/07/31 06:50:19;;;;;;;10.13;6.60;;;16.60;1.00;;;;;;4954988;28;20557;-63
2023/07/31 06:52:47;;;;;;;7.07;5.43;;;16.60;99.90;;;;;;4955443;28;20473;-64
2023/07/31 06:55:19;;;;;;;10.70;6.63;;;16.60;1.00;;;;;;4955115;29;20434;-63
2023/07/31 06:57:46;;;;;;;8.97;6.33;;;16.60;99.90;;;;;;4955111;28;21016;-65
2023/07/31 07:00:14;;;;;;;8.43;6.27;;;16.60;1.00;;;;;;4955865;29;20454;-61
2023/07/31 07:02:41;;;;;;;7.27;6.13;;;16.60;1.00;;;;;;4958107;28;20437;-64
2023/07/31 07:05:09;;;;;;;7.57;6.33;;;16.60;26.40;;;;;;4958872;28;20467;-66
2023/07/31 07:07:37;;;;;;;13.77;7.10;;;16.50;1.00;;;;;;4958802;29;20873;-64
2023/07/31 07:10:06;;;;;;;8.67;6.27;;;16.40;99.90;;;;;;4958824;29;20495;-65
2023/07/31 07:12:34;;;;;;;9.73;6.27;;;16.40;1.00;;;;;;4958804;28;20467;-64
2023/07/31 07:15:02;;;;;;;8.73;5.83;;;16.40;1.00;;;;;;4958585;28;20893;-67
2023/07/31 07:17:31;;;;;;;9.93;6.90;;;16.40;1.00;;;;;;4958491;28;20491;-66
2023/07/31 07:19:58;;;;;;;7.90;5.60;;;16.40;99.90;;;;;;4959988;28;20462;-67
2023/07/31 07:22:26;;;;;;;9.37;6.43;;;16.40;64.00;;;;;;4962592;29;20470;-65
2023/07/31 07:24:54;;;;;;;9.67;6.60;;;16.40;1.00;;;;;;4962482;29;20471;-63
2023/07/31 07:27:22;;;;;;;12.63;7.00;;;16.40;1.00;;;;;;4961393;28;20577;-65
2023/07/31 07:29:51;;;;;;;8.50;6.20;;;16.40;99.90;;;;;;4962257;29;20793;-62
2023/07/31 07:32:18;;;;;;;9.73;6.50;;;16.40;99.90;;;;;;4962099;29;20466;-64
2023/07/31 07:34:45;;;;;;;7.97;6.60;;;16.40;1.00;;;;;;4961593;29;20463;-67
2023/07/31 07:37:13;;;;;;;11.53;6.00;;;16.40;1.00;;;;;;4962021;29;20561;-69
2023/07/31 07:39:40;;;;;;;8.90;6.47;;;16.50;1.00;;;;;;4962001;28;20429;-66
2023/07/31 07:42:07;;;;;;;15.20;7.23;;;16.40;99.90;;;;;;4962473;28;20440;-63
2023/07/31 07:44:36;;;;;;;8.83;6.10;;;16.40;22.40;;;;;;4966478;28;20449;-66
2023/07/31 07:47:05;;;;;;;7.83;5.43;;;16.30;1.00;;;;;;4980183;28;20540;-67
2023/07/31 07:49:33;;;;;;;9.13;6.70;;;16.30;99.90;;;;;;4982302;28;20533;-66
2023/07/31 07:52:01;;;;;;;9.40;6.33;;;16.30;99.90;;;;;;4982787;28;20442;-67
2023/07/31 07:54:28;;;;;;;7.30;5.97;;;16.30;99.90;;;;;;4981814;28;20473;-65
2023/07/31 07:56:55;;;;;;;10.03;6.37;;;16.30;99.90;;;;;;4983242;28;20781;-64
2023/07/31 07:59:22;;;;;;;7.80;6.10;;;16.40;99.90;;;;;;4982470;28;20457;-67
2023/07/31 08:01:51;;;;;;;8.53;6.10;;;16.40;99.90;;;;;;4981179;28;20837;-66
2023/07/31 08:04:18;;;;;;;9.93;6.40;;;16.50;99.90;;;;;;4981518;28;20533;-68
2023/07/31 08:06:46;;;;;;;11.60;6.33;;;16.60;99.90;;;;;;4980959;28;20461;-68
2023/07/31 08:09:13;;;;;;;11.57;6.43;;;16.50;99.90;;;;;;4971872;28;20979;-67
2023/07/31 08:11:40;;;;;;;6.50;5.10;;;16.60;99.90;;;;;;4962450;28;20441;-66
2023/07/31 08:14:07;;;;;;;8.03;6.00;;;16.70;99.90;;;;;;4961436;28;20501;-61
2023/07/31 08:16:34;;;;;;;6.37;5.47;;;16.70;99.90;;;;;;4961008;29;20535;-67
2023/07/31 08:19:03;;;;;;;6.97;5.30;;;16.70;99.90;;;;;;4961357;28;20581;-66
2023/07/31 08:21:30;;;;;;;6.13;4.90;;;16.70;99.90;;;;;;4960988;29;20545;-67
2023/07/31 08:23:58;;;;;;;8.30;5.57;;;16.70;1.00;;;;;;4960381;29;20459;-65
2023/07/31 08:26:25;;;;;;;5.13;4.07;;;16.70;1.00;;;;;;4959679;29;20920;-66
2023/07/31 08:28:52;;;;;;;7.17;5.13;;;16.70;99.90;;;;;;4959541;29;20469;-67
2023/07/31 08:31:20;;;;;;;7.37;5.10;;;16.70;99.90;;;;;;4958358;28;20499;-67
2023/07/31 08:33:47;;;;;;;8.23;5.50;;;16.60;99.90;;;;;;4959527;28;20446;-65
2023/07/31 08:36:15;;;;;;;8.73;5.27;;;16.60;1.00;;;;;;4972581;28;20449;-68
2023/07/31 08:38:43;;;;;;;5.30;4.67;;;16.70;99.90;;;;;;4979138;28;20468;-66
2023/07/31 08:41:10;;;;;;;5.17;4.40;;;16.70;1.00;;;;;;4979583;28;20439;-67
2023/07/31 08:43:38;;;;;;;6.63;4.67;;;16.80;1.00;;;;;;4980071;28;20468;-66
2023/07/31 08:46:06;;;;;;;6.20;4.23;;;16.80;1.00;;;;;;4979724;28;20526;-64
2023/07/31 08:48:35;;;;;;;6.13;4.50;;;16.80;76.10;;;;;;4980217;28;20930;-64
2023/07/31 08:51:02;;;;;;;5.90;4.67;;;16.80;99.90;;;;;;4979815;28;20530;-64
2023/07/31 08:53:30;;;;;;;8.20;5.10;;;16.80;1.00;;;;;;4979517;28;20490;-64
2023/07/31 08:56:00;;;;;;;6.63;5.13;;;16.70;1.00;;;;;;4979928;28;20436;-63
2023/07/31 08:58:31;;;;;;;6.13;4.47;;;16.80;99.90;;;;;;4980183;28;20472;-64
2023/07/31 09:01:02;;;;;;;6.13;4.97;;;16.70;99.90;;;;;;4976818;28;20712;-62
2023/07/31 09:03:30;;;;;;;5.57;4.50;;;16.70;1.00;;;;;;4978842;28;20767;-62
2023/07/31 09:05:59;;;;;;;8.80;4.67;;;16.80;99.90;;;;;;4979456;28;20443;-63
2023/07/31 09:08:30;;;;;;;8.30;5.37;;;16.90;1.00;;;;;;4980116;28;20513;-63
2023/07/31 09:11:01;;;;;;;8.30;5.80;;;17.00;99.90;;;;;;4979671;28;20503;-63
2023/07/31 09:13:30;;;;;;;6.20;4.93;;;17.00;99.90;;;;;;4979474;28;20556;-61
2023/07/31 09:15:57;;;;;;;5.63;4.07;;;16.90;1.00;;;;;;4980149;28;20729;-62
2023/07/31 09:18:25;;;;;;;5.90;4.90;;;16.90;99.90;;;;;;4979272;28;20529;-63
2023/07/31 09:21:03;;;;;;;7.40;4.50;;;16.80;1.00;;;;;;4979168;28;20776;-62
2023/07/31 09:23:42;;;;;;;5.73;4.30;;;16.80;1.00;;;;;;4979508;28;20440;-63
2023/07/31 09:26:11;;;;;;;7.30;4.67;;;16.90;99.90;;;;;;4979590;28;20462;-62
2023/07/31 09:28:39;;;;;;;8.70;4.97;;;16.90;99.90;;;;;;4979674;28;20470;-62
2023/07/31 09:31:06;;;;;;;6.90;4.67;;;17.00;2.30;;;;;;4979154;28;20500;-61
2023/07/31 09:33:34;;;;;;;5.40;3.77;;;17.20;99.90;;;;;;4979408;28;20505;-63
2023/07/31 09:36:02;;;;;;;4.67;3.97;;;17.20;99.90;;;;;;4967989;28;20515;-64
2023/07/31 09:38:29;;;;;;;5.33;4.43;;;17.30;99.90;;;;;;4960476;29;20542;-64
2023/07/31 09:40:59;;;;;;;6.70;4.67;;;17.30;1.00;;;;;;4959796;29;20543;-64
2023/07/31 09:43:29;;;;;;;6.93;4.50;;;17.20;99.90;;;;;;4959335;28;20463;-64
2023/07/31 09:45:58;;;;;;;6.20;4.30;;;17.20;99.90;;;;;;4959775;29;20881;-68
2023/07/31 09:48:27;;;;;;;4.80;3.87;;;17.20;99.90;;;;;;4960047;28;20486;-63
2023/07/31 09:50:56;;;;;;;7.03;4.10;;;17.20;99.90;;;;;;4959715;29;20472;-65
2023/07/31 09:53:30;;;;;;;4.70;3.80;;;17.10;99.90;;;;;;4959587;29;20437;-66
2023/07/31 09:55:59;;;;;;;4.07;3.00;;;17.10;1.00;;;;;;4959543;29;20470;-64
2023/07/31 09:58:30;;;;;;;4.03;3.00;;;17.10;99.90;;;;;;4959996;29;20444;-64
2023/07/31 10:00:59;;;;;;;4.60;3.27;;;17.10;99.90;;;;;;4959669;29;20466;-65
2023/07/31 10:03:28;;;;;;;6.00;3.63;;;17.00;91.00;;;;;;4959377;29;20810;-66
2023/07/31 10:05:59;;;;;;;3.87;2.70;;;17.00;99.90;;;;;;4958862;29;20896;-65
2023/07/31 10:08:30;;;;;;;3.93;2.70;;;16.90;94.30;;;;;;4959771;29;20465;-65
2023/07/31 10:11:00;;;;;;;3.53;2.80;;;17.00;1.00;;;;;;4958995;29;20498;-70
2023/07/31 10:13:30;;;;;;;3.60;2.87;;;17.00;99.90;;;;;;4959377;29;20509;-65
2023/07/31 10:16:00;;;;;;;4.53;3.23;;;17.00;99.90;;;;;;4959264;29;20437;-64
2023/07/31 10:18:28;;;;;;;4.30;3.20;;;17.10;1.00;;;;;;4959219;29;20484;-65
2023/07/31 10:20:57;;;;;;;4.40;3.13;;;17.10;99.90;;;;;;4959119;28;20440;-64
2023/07/31 10:23:26;;;;;;;4.13;3.23;;;17.10;99.90;;;;;;4959070;29;20464;-64
2023/07/31 10:25:54;;;;;;;4.13;2.60;;;17.20;1.00;;;;;;4959338;29;20498;-64
2023/07/31 10:28:22;;;;;;;4.33;3.33;;;17.20;99.90;;;;;;4958699;29;20513;-63
2023/07/31 10:30:53;;;;;;;5.67;3.07;;;17.20;1.00;;;;;;4959668;28;20553;-62
2023/07/31 10:33:21;;;;;;;4.60;3.63;;;17.30;99.90;;;;;;4958815;29;20466;-64
2023/07/31 10:35:49;;;;;;;3.80;3.40;;;17.40;1.00;;;;;;4958615;29;20490;-64
2023/07/31 10:38:17;;;;;;;4.83;2.83;;;17.40;99.90;;;;;;4960883;28;20460;-64
2023/07/31 10:40:45;;;;;;;4.93;3.27;;;17.40;99.90;;;;;;4958789;28;20561;-64
2023/07/31 10:43:26;;;;;;;5.73;3.43;;;17.40;1.00;;;;;;4958513;28;20573;-65
2023/07/31 10:45:55;;;;;;;3.40;2.60;;;17.50;1.00;;;;;;4959232;29;20888;-62
2023/07/31 10:48:23;;;;;;;4.47;3.90;;;17.40;99.90;;;;;;4958920;28;20775;-63
2023/07/31 10:50:52;;;;;;;3.83;3.03;;;17.30;91.30;;;;;;4958648;28;20516;-61
2023/07/31 10:53:26;;;;;;;3.77;3.30;;;17.20;99.90;;;;;;4958168;29;20849;-62
2023/07/31 10:55:53;;;;;;;6.03;4.97;;;17.20;95.40;;;;;;4961010;28;20896;-63
2023/07/31 10:58:22;;;;;;;5.63;4.50;;;17.20;99.90;;;;;;4962700;29;20474;-63
2023/07/31 11:00:49;;;;;;;7.07;4.60;;;17.10;99.90;;;;;;4962563;29;20463;-64
2023/07/31 11:03:20;;;;;;;6.20;4.27;;;17.10;1.00;;;;;;4962412;28;20441;-66
2023/07/31 11:05:49;;;;;;;6.53;4.47;;;17.10;99.90;;;;;;4962762;28;20570;-66
2023/07/31 11:08:19;;;;;;;7.10;5.17;;;17.20;99.90;;;;;;4962917;29;20855;-65
2023/07/31 11:10:47;;;;;;;5.80;5.30;;;17.30;1.00;;;;;;4961752;28;20529;-66
2023/07/31 11:13:15;;;;;;;7.93;5.10;;;17.30;99.90;;;;;;4964009;28;20783;-67
2023/07/31 11:15:42;;;;;;;6.80;4.77;;;17.40;1.00;;;;;;4973166;28;20476;-65
2023/07/31 11:18:10;;;;;;;8.60;5.93;;;17.50;99.90;;;;;;4979736;28;20485;-64
2023/07/31 11:20:40;;;;;;;8.87;4.90;;;17.60;1.00;;;;;;4980366;28;20592;-66
2023/07/31 11:23:10;;;;;;;8.10;5.40;;;17.70;99.90;;;;;;4980221;28;20447;-67
2023/07/31 11:25:38;;;;;;;6.83;4.47;;;17.70;1.00;;;;;;4979715;28;20466;-67
2023/07/31 11:28:07;;;;;;;5.20;4.70;;;17.70;1.00;;;;;;4981201;28;20556;-66
2023/07/31 11:30:34;;;;;;;5.70;5.10;;;17.60;99.90;;;;;;4981177;28;20533;-64
2023/07/31 11:33:04;;;;;;;7.83;5.20;;;17.60;99.90;;;;;;4980647;28;20540;-64
2023/07/31 11:35:32;;;;;;;6.13;5.03;;;17.50;99.90;;;;;;4971975;28;20546;-64
2023/07/31 11:38:01;;;;;;;9.03;4.53;;;17.50;99.90;;;;;;4960509;29;20444;-65
2023/07/31 11:40:29;;;;;;;5.23;4.33;;;17.60;99.90;;;;;;4960529;29;20835;-64
2023/07/31 11:42:58;;;;;;;5.70;4.80;;;17.60;1.00;;;;;;4961172;28;20462;-66
2023/07/31 11:45:28;;;;;;;7.07;4.40;;;17.60;99.90;;;;;;4961735;29;20878;-66
2023/07/31 11:47:57;;;;;;;5.60;4.40;;;17.60;99.90;;;;;;4960975;29;20455;-67
2023/07/31 11:50:26;;;;;;;6.73;4.90;;;17.50;99.90;;;;;;4961905;29;20499;-68
2023/07/31 11:52:57;;;;;;;7.03;4.63;;;17.50;99.90;;;;;;4961680;29;20470;-67
2023/07/31 11:55:26;;;;;;;5.57;4.03;;;17.50;99.90;;;;;;4961635;28;20437;-67
2023/07/31 11:57:58;;;;;;;4.60;4.07;;;17.60;1.00;;;;;;4961661;28;20473;-66
2023/07/31 12:00:27;;;;;;;4.70;3.80;;;17.60;1.00;;;;;;4961381;29;20434;-66
2023/07/31 12:02:54;;;;;;;5.40;4.13;;;17.70;1.00;;;;;;4961420;29;20458;-67
2023/07/31 12:05:24;;;;;;;5.03;4.40;;;17.70;1.00;;;;;;4961551;28;20440;-66
2023/07/31 12:07:52;;;;;;;5.50;3.80;;;17.80;1.00;;;;;;4961326;29;20445;-66
2023/07/31 12:10:32;;;;;;;5.60;3.50;;;17.80;99.90;;;;;;4961461;29;20437;-66
2023/07/31 12:13:02;;;;;;;5.60;3.43;;;17.90;99.90;;;;;;4961930;29;20466;-67
2023/07/31 12:15:37;;;;;;;4.90;3.33;;;17.80;78.60;;;;;;4961889;28;20711;-67
2023/07/31 12:18:10;;;;;;;4.00;3.30;;;17.80;99.90;;;;;;4961139;29;20490;-67
2023/07/31 12:20:43;;;;;;;5.27;3.63;;;17.70;99.90;;;;;;4961203;28;20500;-66
2023/07/31 12:23:15;;;;;;;4.10;3.20;;;17.70;99.90;;;;;;4961309;28;20462;-67
2023/07/31 12:25:44;;;;;;;10.23;4.13;;;17.70;99.90;;;;;;4960465;29;20530;-66
2023/07/31 12:28:12;;;;;;;6.10;3.97;;;17.70;99.90;;;;;;4961403;29;20476;-66
2023/07/31 12:30:41;;;;;;;5.27;3.53;;;17.70;1.00;;;;;;4961528;29;20962;-66
2023/07/31 12:33:15;;;;;;;4.60;3.43;;;17.60;1.00;;;;;;4960726;29;20463;-66
2023/07/31 12:35:44;;;;;;;5.70;3.80;;;17.60;99.90;;;;;;4969962;28;20436;-66
2023/07/31 12:38:12;;;;;;;4.37;2.63;;;17.50;99.90;;;;;;4980316;28;20469;-65
2023/07/31 12:40:41;;;;;;;4.20;3.47;;;17.60;1.00;;;;;;4980338;28;20458;-67
2023/07/31 12:43:10;;;;;;;3.67;3.07;;;17.60;99.90;;;;;;4979992;28;20462;-65
2023/07/31 12:45:37;;;;;;;4.90;3.77;;;17.60;1.00;;;;;;4979739;28;20466;-67
2023/07/31 12:48:04;;;;;;;4.37;3.33;;;17.60;15.80;;;;;;4980371;28;20489;-65
2023/07/31 12:50:32;;;;;;;6.63;3.30;;;17.50;99.90;;;;;;4980321;28;20476;-67